sensor_id;sensor_type;location;lat;lon;timestamp;temperature;humidity
5248;DHT22;2644;52.420;13.580;2022-08-20T00:00:01;21.40;99.90
5248;DHT22;2644;52.420;13.580;2022-08-20T00:01:06;21.40;99.90
5248;DHT22;2644;52.420;13.580;2022-08-20T00:02:09;21.40;99.90
5248;DHT22;2644;52.420;13.580;2022-08-20T00:03:15;21.40;99.90
5248;DHT22;2644;52.420;13.580;2022-08-20T00:04:18;21.40;99.90
5248;DHT22;2644;52.420;13.580;2022-08-20T00:05:24;21.40;99.90
5248;DHT22;2644;52.420;13.580;2022-08-20T00:06:26;21.40;99.90
5248;DHT22;2644;52.420;13.580;2022-08-20T00:07:29;21.40;99.90
5248;DHT22;2644;52.420;13.580;2022-08-20T00:08:32;21.40;99.90
5248;DHT22;2644;52.420;13.580;2022-08-20T00:09:41;21.50;99.90
5248;DHT22;2644;52.420;13.580;2022-08-20T00:10:46;21.50;99.90
5248;DHT22;2644;52.420;13.580;2022-08-20T00:11:56;21.50;99.90
5248;DHT22;2644;52.420;13.580;2022-08-20T00:12:59;21.50;99.90
5248;DHT22;2644;52.420;13.580;2022-08-20T00:14:04;21.50;99.90
5248;DHT22;2644;52.420;13.580;2022-08-20T00:15:07;21.50;99.90
5248;DHT22;2644;52.420;13.580;2022-08-20T00:16:12;21.50;99.90
5248;DHT22;2644;52.420;13.580;2022-08-20T00:17:15;21.50;99.90
5248;DHT22;2644;52.420;13.580;2022-08-20T00:18:18;21.50;99.90
5248;DHT22;2644;52.420;13.580;2022-08-20T00:19:20;21.50;99.90
5248;DHT22;2644;52.420;13.580;2022-08-20T00:20:32;21.40;99.90
5248;DHT22;2644;52.420;13.580;2022-08-20T00:21:36;21.40;99.90
5248;DHT22;2644;52.420;13.580;2022-08-20T00:22:41;21.40;99.90
5248;DHT22;2644;52.420;13.580;2022-08-20T00:23:46;21.40;99.90
5248;DHT22;2644;52.420;13.580;2022-08-20T00:24:50;21.40;99.90
5248;DHT22;2644;52.420;13.580;2022-08-20T00:25:53;21.30;99.90
5248;DHT22;2644;52.420;13.580;2022-08-20T00:26:56;21.40;99.90
5248;DHT22;2644;52.420;13.580;2022-08-20T00:27:58;21.40;99.90
5248;DHT22;2644;52.420;13.580;2022-08-20T00:29:03;21.40;99.90
5248;DHT22;2644;52.420;13.580;2022-08-20T00:30:09;21.40;99.90
5248;DHT22;2644;52.420;13.580;2022-08-20T00:31:14;21.40;99.90
5248;DHT22;2644;52.420;13.580;2022-08-20T00:32:18;21.50;99.90
5248;DHT22;2644;52.420;13.580;2022-08-20T00:33:22;21.50;99.90
5248;DHT22;2644;52.420;13.580;2022-08-20T00:34:26;21.50;99.90
5248;DHT22;2644;52.420;13.580;2022-08-20T00:35:31;21.50;99.90
5248;DHT22;2644;52.420;13.580;2022-08-20T00:36:35;21.50;99.90
5248;DHT22;2644;52.420;13.580;2022-08-20T00:37:38;21.50;99.90
5248;DHT22;2644;52.420;13.580;2022-08-20T00:38:43;21.50;99.90
5248;DHT22;2644;52.420;13.580;2022-08-20T00:39:45;21.50;99.90
5248;DHT22;2644;52.420;13.580;2022-08-20T00:40:53;21.50;99.90
5248;DHT22;2644;52.420;13.580;2022-08-20T00:41:56;21.50;99.90
5248;DHT22;2644;52.420;13.580;2022-08-20T00:43:01;21.50;99.90
5248;DHT22;2644;52.420;13.580;2022-08-20T00:44:08;21.40;99.90
5248;DHT22;2644;52.420;13.580;2022-08-20T00:45:13;21.40;99.90
5248;DHT22;2644;52.420;13.580;2022-08-20T00:46:19;21.40;99.90
5248;DHT22;2644;52.420;13.580;2022-08-20T00:47:31;21.40;99.90
5248;DHT22;2644;52.420;13.580;2022-08-20T00:48:36;21.40;99.90
5248;DHT22;2644;52.420;13.580;2022-08-20T00:49:40;21.40;99.90
5248;DHT22;2644;52.420;13.580;2022-08-20T00:50:43;21.40;99.90
5248;DHT22;2644;52.420;13.580;2022-08-20T00:51:50;21.40;99.90
5248;DHT22;2644;52.420;13.580;2022-08-20T00:52:54;21.40;99.90
5248;DHT22;2644;52.420;13.580;2022-08-20T00:54:01;21.40;99.90
5248;DHT22;2644;52.420;13.580;2022-08-20T00:55:05;21.50;99.90
5248;DHT22;2644;52.420;13.580;2022-08-20T00:56:12;21.50;99.90
5248;DHT22;2644;52.420;13.580;2022-08-20T00:57:22;21.40;99.90
5248;DHT22;2644;52.420;13.580;2022-08-20T00:58:26;21.40;99.90
5248;DHT22;2644;52.420;13.580;2022-08-20T00:59:32;21.40;99.90
5248;DHT22;2644;52.420;13.580;2022-08-20T01:00:38;21.40;99.90
5248;DHT22;2644;52.420;13.580;2022-08-20T01:01:42;21.40;99.90
5248;DHT22;2644;52.420;13.580;2022-08-20T01:02:57;21.40;99.90
5248;DHT22;2644;52.420;13.580;2022-08-20T01:04:01;21.30;99.90
5248;DHT22;2644;52.420;13.580;2022-08-20T01:05:05;21.30;99.90
5248;DHT22;2644;52.420;13.580;2022-08-20T01:06:11;21.30;99.90
5248;DHT22;2644;52.420;13.580;2022-08-20T01:07:13;21.30;99.90
5248;DHT22;2644;52.420;13.580;2022-08-20T01:08:19;21.30;99.90
5248;DHT22;2644;52.420;13.580;2022-08-20T01:09:22;21.30;99.90
5248;DHT22;2644;52.420;13.580;2022-08-20T01:10:47;21.30;99.90
5248;DHT22;2644;52.420;13.580;2022-08-20T01:11:52;21.30;99.90
5248;DHT22;2644;52.420;13.580;2022-08-20T01:12:57;21.30;99.90
5248;DHT22;2644;52.420;13.580;2022-08-20T01:14:02;21.20;99.90
5248;DHT22;2644;52.420;13.580;2022-08-20T01:15:18;21.20;99.90
5248;DHT22;2644;52.420;13.580;2022-08-20T01:16:31;21.20;99.90
5248;DHT22;2644;52.420;13.580;2022-08-20T01:17:35;21.20;99.90
5248;DHT22;2644;52.420;13.580;2022-08-20T01:18:40;21.20;99.90
5248;DHT22;2644;52.420;13.580;2022-08-20T01:19:46;21.20;99.90
5248;DHT22;2644;52.420;13.580;2022-08-20T01:20:53;21.20;99.90
5248;DHT22;2644;52.420;13.580;2022-08-20T01:21:57;21.20;99.90
5248;DHT22;2644;52.420;13.580;2022-08-20T01:23:06;21.20;99.90
5248;DHT22;2644;52.420;13.580;2022-08-20T01:24:34;21.20;99.90
5248;DHT22;2644;52.420;13.580;2022-08-20T01:25:43;21.20;99.90
5248;DHT22;2644;52.420;13.580;2022-08-20T01:26:47;21.20;99.90
5248;DHT22;2644;52.420;13.580;2022-08-20T01:27:52;21.20;99.90
5248;DHT22;2644;52.420;13.580;2022-08-20T01:28:59;21.20;99.90
5248;DHT22;2644;52.420;13.580;2022-08-20T01:30:06;21.20;99.90
5248;DHT22;2644;52.420;13.580;2022-08-20T01:31:12;21.20;99.90
5248;DHT22;2644;52.420;13.580;2022-08-20T01:32:15;21.20;99.90
5248;DHT22;2644;52.420;13.580;2022-08-20T01:33:18;21.10;99.90
5248;DHT22;2644;52.420;13.580;2022-08-20T01:34:21;21.10;99.90
5248;DHT22;2644;52.420;13.580;2022-08-20T01:35:24;21.10;99.90
5248;DHT22;2644;52.420;13.580;2022-08-20T01:36:32;21.10;99.90
5248;DHT22;2644;52.420;13.580;2022-08-20T01:37:35;21.10;99.90
5248;DHT22;2644;52.420;13.580;2022-08-20T01:38:38;21.00;99.90
5248;DHT22;2644;52.420;13.580;2022-08-20T01:39:40;21.00;99.90
5248;DHT22;2644;52.420;13.580;2022-08-20T01:41:09;21.00;99.90
5248;DHT22;2644;52.420;13.580;2022-08-20T01:42:17;21.00;99.90
5248;DHT22;2644;52.420;13.580;2022-08-20T01:43:23;20.90;99.90
5248;DHT22;2644;52.420;13.580;2022-08-20T01:44:27;20.90;99.90
5248;DHT22;2644;52.420;13.580;2022-08-20T01:45:31;20.80;99.90
5248;DHT22;2644;52.420;13.580;2022-08-20T01:46:38;20.80;99.90
5248;DHT22;2644;52.420;13.580;2022-08-20T01:47:44;20.80;99.90
5248;DHT22;2644;52.420;13.580;2022-08-20T01:48:51;20.70;99.90
5248;DHT22;2644;52.420;13.580;2022-08-20T01:49:58;20.70;99.90
5248;DHT22;2644;52.420;13.580;2022-08-20T01:51:06;20.70;99.90
5248;DHT22;2644;52.420;13.580;2022-08-20T01:52:14;20.70;99.90
5248;DHT22;2644;52.420;13.580;2022-08-20T01:53:24;20.70;99.90
5248;DHT22;2644;52.420;13.580;2022-08-20T01:54:28;20.60;99.90
5248;DHT22;2644;52.420;13.580;2022-08-20T01:55:32;20.70;99.90
5248;DHT22;2644;52.420;13.580;2022-08-20T01:56:52;20.70;99.90
5248;DHT22;2644;52.420;13.580;2022-08-20T01:57:56;20.70;99.90
5248;DHT22;2644;52.420;13.580;2022-08-20T01:59:02;20.70;99.90
5248;DHT22;2644;52.420;13.580;2022-08-20T02:00:09;20.60;99.90
5248;DHT22;2644;52.420;13.580;2022-08-20T02:01:26;20.60;99.90
5248;DHT22;2644;52.420;13.580;2022-08-20T02:02:29;20.60;99.90
5248;DHT22;2644;52.420;13.580;2022-08-20T02:03:32;20.50;99.90
5248;DHT22;2644;52.420;13.580;2022-08-20T02:04:41;20.60;99.90
5248;DHT22;2644;52.420;13.580;2022-08-20T02:05:44;20.60;99.90
5248;DHT22;2644;52.420;13.580;2022-08-20T02:06:49;20.60;99.90
5248;DHT22;2644;52.420;13.580;2022-08-20T02:07:58;20.60;99.90
5248;DHT22;2644;52.420;13.580;2022-08-20T02:09:02;20.60;99.90
5248;DHT22;2644;52.420;13.580;2022-08-20T02:10:08;20.60;99.90
5248;DHT22;2644;52.420;13.580;2022-08-20T02:11:12;20.60;99.90
5248;DHT22;2644;52.420;13.580;2022-08-20T02:12:19;20.60;99.90
5248;DHT22;2644;52.420;13.580;2022-08-20T02:13:21;20.60;99.90
5248;DHT22;2644;52.420;13.580;2022-08-20T02:14:26;20.60;99.90
5248;DHT22;2644;52.420;13.580;2022-08-20T02:15:28;20.60;99.90
5248;DHT22;2644;52.420;13.580;2022-08-20T02:16:44;20.70;99.90
5248;DHT22;2644;52.420;13.580;2022-08-20T02:17:56;20.60;99.90
5248;DHT22;2644;52.420;13.580;2022-08-20T02:19:01;20.60;99.90
5248;DHT22;2644;52.420;13.580;2022-08-20T02:20:07;20.70;99.90
5248;DHT22;2644;52.420;13.580;2022-08-20T02:21:11;20.70;99.90
5248;DHT22;2644;52.420;13.580;2022-08-20T02:22:19;20.70;99.90
5248;DHT22;2644;52.420;13.580;2022-08-20T02:23:23;20.70;99.90
5248;DHT22;2644;52.420;13.580;2022-08-20T02:24:25;20.70;99.90
5248;DHT22;2644;52.420;13.580;2022-08-20T02:25:31;20.70;99.90
5248;DHT22;2644;52.420;13.580;2022-08-20T02:26:34;20.60;99.90
5248;DHT22;2644;52.420;13.580;2022-08-20T02:27:43;20.60;99.90
5248;DHT22;2644;52.420;13.580;2022-08-20T02:28:48;20.60;99.90
5248;DHT22;2644;52.420;13.580;2022-08-20T02:29:54;20.60;99.90
5248;DHT22;2644;52.420;13.580;2022-08-20T02:30:58;20.60;99.90
5248;DHT22;2644;52.420;13.580;2022-08-20T02:32:04;20.60;99.90
5248;DHT22;2644;52.420;13.580;2022-08-20T02:33:30;20.50;99.90
5248;DHT22;2644;52.420;13.580;2022-08-20T02:34:33;20.50;99.90
5248;DHT22;2644;52.420;13.580;2022-08-20T02:35:36;20.40;99.90
5248;DHT22;2644;52.420;13.580;2022-08-20T02:36:40;20.40;99.90
5248;DHT22;2644;52.420;13.580;2022-08-20T02:37:44;20.50;99.90
5248;DHT22;2644;52.420;13.580;2022-08-20T02:38:47;20.50;99.90
5248;DHT22;2644;52.420;13.580;2022-08-20T02:39:49;20.50;99.90
5248;DHT22;2644;52.420;13.580;2022-08-20T02:40:53;20.50;99.90
5248;DHT22;2644;52.420;13.580;2022-08-20T02:41:55;20.50;99.90
5248;DHT22;2644;52.420;13.580;2022-08-20T02:43:00;20.50;99.90
5248;DHT22;2644;52.420;13.580;2022-08-20T02:44:04;20.50;99.90
5248;DHT22;2644;52.420;13.580;2022-08-20T02:45:09;20.50;99.90
5248;DHT22;2644;52.420;13.580;2022-08-20T02:46:18;20.50;99.90
5248;DHT22;2644;52.420;13.580;2022-08-20T02:47:21;20.40;99.90
5248;DHT22;2644;52.420;13.580;2022-08-20T02:48:26;20.40;99.90
5248;DHT22;2644;52.420;13.580;2022-08-20T02:49:29;20.40;99.90
5248;DHT22;2644;52.420;13.580;2022-08-20T02:50:31;20.40;99.90
5248;DHT22;2644;52.420;13.580;2022-08-20T02:51:34;20.40;99.90
5248;DHT22;2644;52.420;13.580;2022-08-20T02:52:40;20.40;99.90
5248;DHT22;2644;52.420;13.580;2022-08-20T02:53:52;20.30;99.90
5248;DHT22;2644;52.420;13.580;2022-08-20T02:54:56;20.30;99.90
5248;DHT22;2644;52.420;13.580;2022-08-20T02:55:58;20.30;99.90
5248;DHT22;2644;52.420;13.580;2022-08-20T02:57:01;20.30;99.90
5248;DHT22;2644;52.420;13.580;2022-08-20T02:58:05;20.40;99.90
5248;DHT22;2644;52.420;13.580;2022-08-20T02:59:09;20.40;99.90
5248;DHT22;2644;52.420;13.580;2022-08-20T03:00:21;20.30;99.90
5248;DHT22;2644;52.420;13.580;2022-08-20T03:01:24;20.30;99.90
5248;DHT22;2644;52.420;13.580;2022-08-20T03:02:27;20.30;99.90
5248;DHT22;2644;52.420;13.580;2022-08-20T03:03:31;20.30;99.90
5248;DHT22;2644;52.420;13.580;2022-08-20T03:04:33;20.30;99.90
5248;DHT22;2644;52.420;13.580;2022-08-20T03:05:38;20.30;99.90
5248;DHT22;2644;52.420;13.580;2022-08-20T03:06:40;20.30;99.90
5248;DHT22;2644;52.420;13.580;2022-08-20T03:07:46;20.20;99.90
5248;DHT22;2644;52.420;13.580;2022-08-20T03:08:48;20.30;99.90
5248;DHT22;2644;52.420;13.580;2022-08-20T03:09:52;20.30;99.90
5248;DHT22;2644;52.420;13.580;2022-08-20T03:10:54;20.20;99.90
5248;DHT22;2644;52.420;13.580;2022-08-20T03:11:57;20.20;99.90
5248;DHT22;2644;52.420;13.580;2022-08-20T03:13:00;20.20;99.90
5248;DHT22;2644;52.420;13.580;2022-08-20T03:14:05;20.20;99.90
5248;DHT22;2644;52.420;13.580;2022-08-20T03:15:10;20.10;99.90
5248;DHT22;2644;52.420;13.580;2022-08-20T03:16:18;20.10;99.90
5248;DHT22;2644;52.420;13.580;2022-08-20T03:17:20;20.00;99.90
5248;DHT22;2644;52.420;13.580;2022-08-20T03:18:27;20.00;99.90
5248;DHT22;2644;52.420;13.580;2022-08-20T03:19:29;20.00;99.90
5248;DHT22;2644;52.420;13.580;2022-08-20T03:20:33;20.00;99.90
5248;DHT22;2644;52.420;13.580;2022-08-20T03:21:36;20.00;99.90
5248;DHT22;2644;52.420;13.580;2022-08-20T03:22:39;19.90;99.90
5248;DHT22;2644;52.420;13.580;2022-08-20T03:23:41;19.90;99.90
5248;DHT22;2644;52.420;13.580;2022-08-20T03:24:45;19.90;99.90
5248;DHT22;2644;52.420;13.580;2022-08-20T03:25:49;19.90;99.90
5248;DHT22;2644;52.420;13.580;2022-08-20T03:26:52;19.90;99.90
5248;DHT22;2644;52.420;13.580;2022-08-20T03:27:55;19.80;99.90
5248;DHT22;2644;52.420;13.580;2022-08-20T03:28:59;19.80;99.90
5248;DHT22;2644;52.420;13.580;2022-08-20T03:30:04;19.80;99.90
5248;DHT22;2644;52.420;13.580;2022-08-20T03:31:07;19.80;99.90
5248;DHT22;2644;52.420;13.580;2022-08-20T03:32:13;19.80;99.90
5248;DHT22;2644;52.420;13.580;2022-08-20T03:33:15;19.90;99.90
5248;DHT22;2644;52.420;13.580;2022-08-20T03:34:21;19.90;99.90
5248;DHT22;2644;52.420;13.580;2022-08-20T03:35:25;19.90;99.90
5248;DHT22;2644;52.420;13.580;2022-08-20T03:36:29;19.90;99.90
5248;DHT22;2644;52.420;13.580;2022-08-20T03:37:34;19.90;99.90
5248;DHT22;2644;52.420;13.580;2022-08-20T03:38:40;19.90;99.90
5248;DHT22;2644;52.420;13.580;2022-08-20T03:39:43;19.90;99.90
5248;DHT22;2644;52.420;13.580;2022-08-20T03:40:47;19.90;99.90
5248;DHT22;2644;52.420;13.580;2022-08-20T03:41:50;20.00;99.90
5248;DHT22;2644;52.420;13.580;2022-08-20T03:42:52;19.90;99.90
5248;DHT22;2644;52.420;13.580;2022-08-20T03:43:56;20.00;99.90
5248;DHT22;2644;52.420;13.580;2022-08-20T03:44:59;20.00;99.90
5248;DHT22;2644;52.420;13.580;2022-08-20T03:46:03;20.00;99.90
5248;DHT22;2644;52.420;13.580;2022-08-20T03:47:23;20.00;99.90
5248;DHT22;2644;52.420;13.580;2022-08-20T03:48:25;20.00;99.90
5248;DHT22;2644;52.420;13.580;2022-08-20T03:49:29;20.00;99.90
5248;DHT22;2644;52.420;13.580;2022-08-20T03:50:31;20.00;99.90
5248;DHT22;2644;52.420;13.580;2022-08-20T03:51:34;20.00;99.90
5248;DHT22;2644;52.420;13.580;2022-08-20T03:52:57;20.00;99.90
5248;DHT22;2644;52.420;13.580;2022-08-20T03:54:00;19.90;99.90
5248;DHT22;2644;52.420;13.580;2022-08-20T03:55:04;20.00;99.90
5248;DHT22;2644;52.420;13.580;2022-08-20T03:56:07;20.00;99.90
5248;DHT22;2644;52.420;13.580;2022-08-20T03:57:13;20.00;99.90
5248;DHT22;2644;52.420;13.580;2022-08-20T03:58:17;20.00;99.90
5248;DHT22;2644;52.420;13.580;2022-08-20T03:59:20;20.00;99.90
5248;DHT22;2644;52.420;13.580;2022-08-20T04:00:26;20.00;99.90
5248;DHT22;2644;52.420;13.580;2022-08-20T04:01:30;19.90;99.90
5248;DHT22;2644;52.420;13.580;2022-08-20T04:02:47;20.00;99.90
5248;DHT22;2644;52.420;13.580;2022-08-20T04:03:49;20.00;99.90
5248;DHT22;2644;52.420;13.580;2022-08-20T04:04:56;20.00;99.90
5248;DHT22;2644;52.420;13.580;2022-08-20T04:05:58;20.00;99.90
5248;DHT22;2644;52.420;13.580;2022-08-20T04:07:08;20.00;99.90
5248;DHT22;2644;52.420;13.580;2022-08-20T04:08:14;20.10;99.90
5248;DHT22;2644;52.420;13.580;2022-08-20T04:09:18;20.00;99.90
5248;DHT22;2644;52.420;13.580;2022-08-20T04:10:20;20.10;99.90
5248;DHT22;2644;52.420;13.580;2022-08-20T04:11:23;20.10;99.90
5248;DHT22;2644;52.420;13.580;2022-08-20T04:12:25;20.10;99.90
5248;DHT22;2644;52.420;13.580;2022-08-20T04:13:29;20.10;99.90
5248;DHT22;2644;52.420;13.580;2022-08-20T04:14:31;20.10;99.90
5248;DHT22;2644;52.420;13.580;2022-08-20T04:15:35;20.10;99.90
5248;DHT22;2644;52.420;13.580;2022-08-20T04:16:39;20.20;99.90
5248;DHT22;2644;52.420;13.580;2022-08-20T04:17:46;20.20;99.90
5248;DHT22;2644;52.420;13.580;2022-08-20T04:18:48;20.20;99.90
5248;DHT22;2644;52.420;13.580;2022-08-20T04:20:04;20.20;99.90
5248;DHT22;2644;52.420;13.580;2022-08-20T04:21:06;20.10;99.90
5248;DHT22;2644;52.420;13.580;2022-08-20T04:22:10;20.10;99.90
5248;DHT22;2644;52.420;13.580;2022-08-20T04:23:14;20.10;99.90
5248;DHT22;2644;52.420;13.580;2022-08-20T04:24:17;20.10;99.90
5248;DHT22;2644;52.420;13.580;2022-08-20T04:25:33;20.10;99.90
5248;DHT22;2644;52.420;13.580;2022-08-20T04:26:37;20.10;99.90
5248;DHT22;2644;52.420;13.580;2022-08-20T04:27:40;20.10;99.90
5248;DHT22;2644;52.420;13.580;2022-08-20T04:28:44;20.20;99.90
5248;DHT22;2644;52.420;13.580;2022-08-20T04:29:46;20.20;99.90
5248;DHT22;2644;52.420;13.580;2022-08-20T04:30:49;20.20;99.90
5248;DHT22;2644;52.420;13.580;2022-08-20T04:31:54;20.20;99.90
5248;DHT22;2644;52.420;13.580;2022-08-20T04:32:58;20.20;99.90
5248;DHT22;2644;52.420;13.580;2022-08-20T04:34:01;20.20;99.90
5248;DHT22;2644;52.420;13.580;2022-08-20T04:35:07;20.30;99.90
5248;DHT22;2644;52.420;13.580;2022-08-20T04:36:10;20.30;99.90
5248;DHT22;2644;52.420;13.580;2022-08-20T04:37:18;20.30;99.90
5248;DHT22;2644;52.420;13.580;2022-08-20T04:38:22;20.30;99.90
5248;DHT22;2644;52.420;13.580;2022-08-20T04:39:25;20.30;99.90
5248;DHT22;2644;52.420;13.580;2022-08-20T04:40:28;20.40;99.90
5248;DHT22;2644;52.420;13.580;2022-08-20T04:41:49;20.30;99.90
5248;DHT22;2644;52.420;13.580;2022-08-20T04:42:59;20.30;99.90
5248;DHT22;2644;52.420;13.580;2022-08-20T04:44:06;20.30;99.90
5248;DHT22;2644;52.420;13.580;2022-08-20T04:45:12;20.30;99.90
5248;DHT22;2644;52.420;13.580;2022-08-20T04:46:14;20.30;99.90
5248;DHT22;2644;52.420;13.580;2022-08-20T04:47:19;20.30;99.90
5248;DHT22;2644;52.420;13.580;2022-08-20T04:48:39;20.30;99.90
5248;DHT22;2644;52.420;13.580;2022-08-20T04:49:50;20.30;99.90
5248;DHT22;2644;52.420;13.580;2022-08-20T04:50:59;20.30;99.90
5248;DHT22;2644;52.420;13.580;2022-08-20T04:52:04;20.30;99.90
5248;DHT22;2644;52.420;13.580;2022-08-20T04:53:08;20.40;99.90
5248;DHT22;2644;52.420;13.580;2022-08-20T04:54:12;20.40;99.90
5248;DHT22;2644;52.420;13.580;2022-08-20T04:55:16;20.40;99.90
5248;DHT22;2644;52.420;13.580;2022-08-20T04:56:20;20.40;99.90
5248;DHT22;2644;52.420;13.580;2022-08-20T04:57:25;20.40;99.90
5248;DHT22;2644;52.420;13.580;2022-08-20T04:58:32;20.40;99.90
5248;DHT22;2644;52.420;13.580;2022-08-20T04:59:34;20.40;99.90
5248;DHT22;2644;52.420;13.580;2022-08-20T05:00:40;20.40;99.90
5248;DHT22;2644;52.420;13.580;2022-08-20T05:01:46;20.40;99.90
5248;DHT22;2644;52.420;13.580;2022-08-20T05:02:50;20.30;99.90
5248;DHT22;2644;52.420;13.580;2022-08-20T05:03:53;20.40;99.90
5248;DHT22;2644;52.420;13.580;2022-08-20T05:04:57;20.40;99.90
5248;DHT22;2644;52.420;13.580;2022-08-20T05:06:00;20.40;99.90
5248;DHT22;2644;52.420;13.580;2022-08-20T05:07:03;20.40;99.90
5248;DHT22;2644;52.420;13.580;2022-08-20T05:08:05;20.40;99.90
5248;DHT22;2644;52.420;13.580;2022-08-20T05:09:23;20.50;99.90
5248;DHT22;2644;52.420;13.580;2022-08-20T05:10:26;20.50;99.90
5248;DHT22;2644;52.420;13.580;2022-08-20T05:11:29;20.50;99.90
5248;DHT22;2644;52.420;13.580;2022-08-20T05:12:38;20.50;99.90
5248;DHT22;2644;52.420;13.580;2022-08-20T05:13:41;20.50;99.90
5248;DHT22;2644;52.420;13.580;2022-08-20T05:14:44;20.50;99.90
5248;DHT22;2644;52.420;13.580;2022-08-20T05:15:48;20.50;99.90
5248;DHT22;2644;52.420;13.580;2022-08-20T05:16:50;20.50;99.90
5248;DHT22;2644;52.420;13.580;2022-08-20T05:17:58;20.60;99.90
5248;DHT22;2644;52.420;13.580;2022-08-20T05:19:01;20.60;99.90
5248;DHT22;2644;52.420;13.580;2022-08-20T05:20:06;20.70;99.90
5248;DHT22;2644;52.420;13.580;2022-08-20T05:21:11;20.70;99.90
5248;DHT22;2644;52.420;13.580;2022-08-20T05:22:16;20.80;99.90
5248;DHT22;2644;52.420;13.580;2022-08-20T05:23:20;20.80;99.90
5248;DHT22;2644;52.420;13.580;2022-08-20T05:24:25;20.80;99.90
5248;DHT22;2644;52.420;13.580;2022-08-20T05:25:29;20.80;99.90
5248;DHT22;2644;52.420;13.580;2022-08-20T05:26:33;20.80;99.90
5248;DHT22;2644;52.420;13.580;2022-08-20T05:27:36;20.80;99.90
5248;DHT22;2644;52.420;13.580;2022-08-20T05:28:39;20.90;99.90
5248;DHT22;2644;52.420;13.580;2022-08-20T05:30:00;20.80;99.90
5248;DHT22;2644;52.420;13.580;2022-08-20T05:31:06;20.90;99.90
5248;DHT22;2644;52.420;13.580;2022-08-20T05:32:12;20.90;99.90
5248;DHT22;2644;52.420;13.580;2022-08-20T05:33:18;20.90;99.90
5248;DHT22;2644;52.420;13.580;2022-08-20T05:34:21;20.90;99.90
5248;DHT22;2644;52.420;13.580;2022-08-20T05:35:24;20.80;99.90
5248;DHT22;2644;52.420;13.580;2022-08-20T05:36:28;20.90;99.90
5248;DHT22;2644;52.420;13.580;2022-08-20T05:37:30;20.80;99.90
5248;DHT22;2644;52.420;13.580;2022-08-20T05:38:34;20.90;99.90
5248;DHT22;2644;52.420;13.580;2022-08-20T05:39:37;20.80;99.90
5248;DHT22;2644;52.420;13.580;2022-08-20T05:40:41;20.80;99.90
5248;DHT22;2644;52.420;13.580;2022-08-20T05:41:43;20.80;99.90
5248;DHT22;2644;52.420;13.580;2022-08-20T05:42:47;20.80;99.90
5248;DHT22;2644;52.420;13.580;2022-08-20T05:43:49;20.80;99.90
5248;DHT22;2644;52.420;13.580;2022-08-20T05:44:52;20.80;99.90
5248;DHT22;2644;52.420;13.580;2022-08-20T05:45:56;20.70;99.90
5248;DHT22;2644;52.420;13.580;2022-08-20T05:47:00;20.70;99.90
5248;DHT22;2644;52.420;13.580;2022-08-20T05:48:06;20.70;99.90
5248;DHT22;2644;52.420;13.580;2022-08-20T05:49:12;20.70;99.90
5248;DHT22;2644;52.420;13.580;2022-08-20T05:50:17;20.80;99.90
5248;DHT22;2644;52.420;13.580;2022-08-20T05:51:24;20.80;99.90
5248;DHT22;2644;52.420;13.580;2022-08-20T05:52:27;20.90;99.90
5248;DHT22;2644;52.420;13.580;2022-08-20T05:53:32;20.90;99.90
5248;DHT22;2644;52.420;13.580;2022-08-20T05:54:35;20.90;99.90
5248;DHT22;2644;52.420;13.580;2022-08-20T05:55:39;21.00;99.90
5248;DHT22;2644;52.420;13.580;2022-08-20T05:56:42;21.10;99.90
5248;DHT22;2644;52.420;13.580;2022-08-20T05:57:45;21.10;99.90
5248;DHT22;2644;52.420;13.580;2022-08-20T05:58:48;21.10;99.90
5248;DHT22;2644;52.420;13.580;2022-08-20T05:59:53;21.10;99.90
5248;DHT22;2644;52.420;13.580;2022-08-20T06:00:56;21.10;99.90
5248;DHT22;2644;52.420;13.580;2022-08-20T06:02:00;21.10;99.90
5248;DHT22;2644;52.420;13.580;2022-08-20T06:03:02;21.20;99.90
5248;DHT22;2644;52.420;13.580;2022-08-20T06:04:24;21.20;99.90
5248;DHT22;2644;52.420;13.580;2022-08-20T06:05:27;21.20;99.90
5248;DHT22;2644;52.420;13.580;2022-08-20T06:06:31;21.20;99.90
5248;DHT22;2644;52.420;13.580;2022-08-20T06:07:47;21.20;99.90
5248;DHT22;2644;52.420;13.580;2022-08-20T06:08:55;21.10;99.90
5248;DHT22;2644;52.420;13.580;2022-08-20T06:09:59;21.10;99.90
5248;DHT22;2644;52.420;13.580;2022-08-20T06:11:03;21.10;99.90
5248;DHT22;2644;52.420;13.580;2022-08-20T06:12:06;21.10;99.90
5248;DHT22;2644;52.420;13.580;2022-08-20T06:13:10;21.20;99.90
5248;DHT22;2644;52.420;13.580;2022-08-20T06:14:15;21.10;99.90
5248;DHT22;2644;52.420;13.580;2022-08-20T06:15:18;21.10;99.90
5248;DHT22;2644;52.420;13.580;2022-08-20T06:16:24;21.00;99.90
5248;DHT22;2644;52.420;13.580;2022-08-20T06:17:31;21.00;99.90
5248;DHT22;2644;52.420;13.580;2022-08-20T06:18:40;21.00;99.90
5248;DHT22;2644;52.420;13.580;2022-08-20T06:19:46;21.00;99.90
5248;DHT22;2644;52.420;13.580;2022-08-20T06:20:48;21.00;99.90
5248;DHT22;2644;52.420;13.580;2022-08-20T06:21:52;21.00;99.90
5248;DHT22;2644;52.420;13.580;2022-08-20T06:25:40;20.90;99.90
5248;DHT22;2644;52.420;13.580;2022-08-20T06:26:44;21.00;99.90
5248;DHT22;2644;52.420;13.580;2022-08-20T06:27:49;21.00;99.90
5248;DHT22;2644;52.420;13.580;2022-08-20T06:28:52;21.00;99.90
5248;DHT22;2644;52.420;13.580;2022-08-20T06:29:55;21.00;99.90
5248;DHT22;2644;52.420;13.580;2022-08-20T06:30:59;21.00;99.90
5248;DHT22;2644;52.420;13.580;2022-08-20T06:32:03;21.00;99.90
5248;DHT22;2644;52.420;13.580;2022-08-20T06:33:19;21.00;99.90
5248;DHT22;2644;52.420;13.580;2022-08-20T06:36:10;21.00;99.90
5248;DHT22;2644;52.420;13.580;2022-08-20T06:37:25;21.00;99.90
5248;DHT22;2644;52.420;13.580;2022-08-20T06:38:33;21.00;99.90
5248;DHT22;2644;52.420;13.580;2022-08-20T06:39:42;21.00;99.90
5248;DHT22;2644;52.420;13.580;2022-08-20T06:40:45;21.00;99.90
5248;DHT22;2644;52.420;13.580;2022-08-20T06:41:50;21.10;99.90
5248;DHT22;2644;52.420;13.580;2022-08-20T06:42:55;21.00;99.90
5248;DHT22;2644;52.420;13.580;2022-08-20T06:43:59;21.10;99.90
5248;DHT22;2644;52.420;13.580;2022-08-20T06:45:02;21.10;99.90
5248;DHT22;2644;52.420;13.580;2022-08-20T06:46:06;21.10;99.90
5248;DHT22;2644;52.420;13.580;2022-08-20T06:47:09;21.00;99.90
5248;DHT22;2644;52.420;13.580;2022-08-20T06:48:15;20.90;99.90
5248;DHT22;2644;52.420;13.580;2022-08-20T06:49:18;20.90;99.90
5248;DHT22;2644;52.420;13.580;2022-08-20T06:50:25;20.90;99.90
5248;DHT22;2644;52.420;13.580;2022-08-20T06:51:29;20.90;99.90
5248;DHT22;2644;52.420;13.580;2022-08-20T06:52:32;20.90;99.90
5248;DHT22;2644;52.420;13.580;2022-08-20T06:53:54;20.80;99.90
5248;DHT22;2644;52.420;13.580;2022-08-20T06:54:57;20.90;99.90
5248;DHT22;2644;52.420;13.580;2022-08-20T06:56:00;20.90;99.90
5248;DHT22;2644;52.420;13.580;2022-08-20T06:57:04;20.90;99.90
5248;DHT22;2644;52.420;13.580;2022-08-20T06:58:08;20.90;99.90
5248;DHT22;2644;52.420;13.580;2022-08-20T06:59:32;20.80;99.90
5248;DHT22;2644;52.420;13.580;2022-08-20T07:00:36;20.80;99.90
5248;DHT22;2644;52.420;13.580;2022-08-20T07:01:41;20.80;99.90
5248;DHT22;2644;52.420;13.580;2022-08-20T07:02:43;20.80;99.90
5248;DHT22;2644;52.420;13.580;2022-08-20T07:03:48;20.70;99.90